sensor_id;sensor_type;location;lat;lon;timestamp;P1;durP1;ratioP1;P2;durP2;ratioP2
16737;SDS011;17906;47.684;10.806;2024-01-11T00:00:28;87.67;;;11.03;;
16737;SDS011;17906;47.684;10.806;2024-01-11T00:02:56;80.27;;;12.17;;
16737;SDS011;17906;47.684;10.806;2024-01-11T00:05:23;90.53;;;15.40;;
16737;SDS011;17906;47.684;10.806;2024-01-11T00:07:49;80.33;;;12.10;;
16737;SDS011;17906;47.684;10.806;2024-01-11T00:10:16;55.47;;;10.77;;
16737;SDS011;17906;47.684;10.806;2024-01-11T00:12:43;42.07;;;11.43;;
16737;SDS011;17906;47.684;10.806;2024-01-11T00:15:10;52.00;;;11.00;;
16737;SDS011;17906;47.684;10.806;2024-01-11T00:17:36;106.67;;;12.93;;
16737;SDS011;17906;47.684;10.806;2024-01-11T00:20:05;53.37;;;11.67;;
16737;SDS011;17906;47.684;10.806;2024-01-11T00:22:32;42.17;;;11.07;;
16737;SDS011;17906;47.684;10.806;2024-01-11T00:24:59;36.00;;;10.93;;
16737;SDS011;17906;47.684;10.806;2024-01-11T00:27:25;52.77;;;11.10;;
16737;SDS011;17906;47.684;10.806;2024-01-11T00:29:52;53.37;;;10.97;;
16737;SDS011;17906;47.684;10.806;2024-01-11T00:32:19;34.37;;;9.90;;
16737;SDS011;17906;47.684;10.806;2024-01-11T00:34:46;59.10;;;11.13;;
16737;SDS011;17906;47.684;10.806;2024-01-11T00:37:14;41.03;;;11.93;;
16737;SDS011;17906;47.684;10.806;2024-01-11T00:39:40;45.23;;;14.00;;
16737;SDS011;17906;47.684;10.806;2024-01-11T00:42:07;38.50;;;12.10;;
16737;SDS011;17906;47.684;10.806;2024-01-11T00:44:34;43.50;;;11.30;;
16737;SDS011;17906;47.684;10.806;2024-01-11T00:47:00;35.00;;;10.97;;
16737;SDS011;17906;47.684;10.806;2024-01-11T00:49:27;45.03;;;11.77;;
16737;SDS011;17906;47.684;10.806;2024-01-11T00:51:53;32.73;;;9.87;;
16737;SDS011;17906;47.684;10.806;2024-01-11T00:54:21;36.13;;;9.17;;
16737;SDS011;17906;47.684;10.806;2024-01-11T00:56:48;53.83;;;10.60;;
16737;SDS011;17906;47.684;10.806;2024-01-11T00:59:15;40.10;;;9.23;;
16737;SDS011;17906;47.684;10.806;2024-01-11T01:01:46;34.73;;;9.43;;
16737;SDS011;17906;47.684;10.806;2024-01-11T01:04:13;63.60;;;10.07;;
16737;SDS011;17906;47.684;10.806;2024-01-11T01:06:40;29.80;;;9.10;;
16737;SDS011;17906;47.684;10.806;2024-01-11T01:09:08;35.97;;;9.37;;
16737;SDS011;17906;47.684;10.806;2024-01-11T01:11:36;33.13;;;10.17;;
16737;SDS011;17906;47.684;10.806;2024-01-11T01:14:02;52.00;;;13.33;;
16737;SDS011;17906;47.684;10.806;2024-01-11T01:16:29;40.53;;;9.20;;
16737;SDS011;17906;47.684;10.806;2024-01-11T01:18:55;40.70;;;8.80;;
16737;SDS011;17906;47.684;10.806;2024-01-11T01:21:22;33.03;;;7.57;;
16737;SDS011;17906;47.684;10.806;2024-01-11T01:23:49;26.27;;;8.63;;
16737;SDS011;17906;47.684;10.806;2024-01-11T01:26:16;53.83;;;9.90;;
16737;SDS011;17906;47.684;10.806;2024-01-11T01:28:43;33.67;;;8.23;;
16737;SDS011;17906;47.684;10.806;2024-01-11T01:31:10;45.33;;;8.20;;
16737;SDS011;17906;47.684;10.806;2024-01-11T01:33:37;40.63;;;7.53;;
16737;SDS011;17906;47.684;10.806;2024-01-11T01:36:03;20.03;;;7.23;;
16737;SDS011;17906;47.684;10.806;2024-01-11T01:38:34;23.13;;;7.87;;
16737;SDS011;17906;47.684;10.806;2024-01-11T01:41:00;22.63;;;7.80;;
16737;SDS011;17906;47.684;10.806;2024-01-11T01:43:27;31.73;;;8.33;;
16737;SDS011;17906;47.684;10.806;2024-01-11T01:45:55;34.00;;;8.27;;
16737;SDS011;17906;47.684;10.806;2024-01-11T01:48:22;40.83;;;8.70;;
16737;SDS011;17906;47.684;10.806;2024-01-11T01:50:49;24.30;;;7.60;;
16737;SDS011;17906;47.684;10.806;2024-01-11T01:53:16;21.93;;;8.07;;
16737;SDS011;17906;47.684;10.806;2024-01-11T01:55:43;31.97;;;8.03;;
16737;SDS011;17906;47.684;10.806;2024-01-11T01:58:10;23.80;;;8.30;;
16737;SDS011;17906;47.684;10.806;2024-01-11T02:00:38;25.67;;;8.70;;
16737;SDS011;17906;47.684;10.806;2024-01-11T02:03:08;33.47;;;8.37;;
16737;SDS011;17906;47.684;10.806;2024-01-11T02:05:35;40.53;;;9.80;;
16737;SDS011;17906;47.684;10.806;2024-01-11T02:08:03;33.83;;;8.83;;
16737;SDS011;17906;47.684;10.806;2024-01-11T02:10:33;45.53;;;8.03;;
16737;SDS011;17906;47.684;10.806;2024-01-11T02:13:00;25.30;;;7.60;;
16737;SDS011;17906;47.684;10.806;2024-01-11T02:15:27;26.07;;;8.37;;
16737;SDS011;17906;47.684;10.806;2024-01-11T02:17:54;34.00;;;8.23;;
16737;SDS011;17906;47.684;10.806;2024-01-11T02:20:22;28.03;;;8.00;;
16737;SDS011;17906;47.684;10.806;2024-01-11T02:22:50;31.97;;;10.70;;
16737;SDS011;17906;47.684;10.806;2024-01-11T02:25:20;25.57;;;8.47;;
16737;SDS011;17906;47.684;10.806;2024-01-11T02:27:47;23.60;;;7.60;;
16737;SDS011;17906;47.684;10.806;2024-01-11T02:30:15;25.07;;;7.43;;
16737;SDS011;17906;47.684;10.806;2024-01-11T02:32:43;24.13;;;7.40;;
16737;SDS011;17906;47.684;10.806;2024-01-11T02:35:11;26.80;;;8.13;;
16737;SDS011;17906;47.684;10.806;2024-01-11T02:37:38;23.03;;;6.83;;
16737;SDS011;17906;47.684;10.806;2024-01-11T02:40:06;19.67;;;6.63;;
16737;SDS011;17906;47.684;10.806;2024-01-11T02:42:36;33.97;;;12.07;;
16737;SDS011;17906;47.684;10.806;2024-01-11T02:45:02;21.77;;;8.33;;
16737;SDS011;17906;47.684;10.806;2024-01-11T02:47:30;19.97;;;7.47;;
16737;SDS011;17906;47.684;10.806;2024-01-11T02:49:56;25.80;;;8.37;;
16737;SDS011;17906;47.684;10.806;2024-01-11T02:52:23;23.60;;;8.70;;
16737;SDS011;17906;47.684;10.806;2024-01-11T02:54:50;21.83;;;7.73;;
16737;SDS011;17906;47.684;10.806;2024-01-11T02:57:16;19.80;;;7.27;;
16737;SDS011;17906;47.684;10.806;2024-01-11T02:59:44;22.03;;;8.13;;
16737;SDS011;17906;47.684;10.806;2024-01-11T03:02:11;20.43;;;7.07;;
16737;SDS011;17906;47.684;10.806;2024-01-11T03:04:37;18.43;;;7.10;;
16737;SDS011;17906;47.684;10.806;2024-01-11T03:07:04;26.47;;;7.10;;
16737;SDS011;17906;47.684;10.806;2024-01-11T03:09:29;23.57;;;8.63;;
16737;SDS011;17906;47.684;10.806;2024-01-11T03:11:56;27.53;;;9.83;;
16737;SDS011;17906;47.684;10.806;2024-01-11T03:14:23;23.47;;;8.37;;
16737;SDS011;17906;47.684;10.806;2024-01-11T03:16:50;20.53;;;7.97;;
16737;SDS011;17906;47.684;10.806;2024-01-11T03:19:17;30.40;;;8.27;;
16737;SDS011;17906;47.684;10.806;2024-01-11T03:21:44;27.60;;;8.00;;
16737;SDS011;17906;47.684;10.806;2024-01-11T03:24:11;25.13;;;8.20;;
16737;SDS011;17906;47.684;10.806;2024-01-11T03:26:38;24.27;;;8.10;;
16737;SDS011;17906;47.684;10.806;2024-01-11T03:29:05;22.30;;;7.40;;
16737;SDS011;17906;47.684;10.806;2024-01-11T03:31:31;26.67;;;9.00;;
16737;SDS011;17906;47.684;10.806;2024-01-11T03:33:59;25.53;;;7.87;;
16737;SDS011;17906;47.684;10.806;2024-01-11T03:36:26;21.57;;;7.47;;
16737;SDS011;17906;47.684;10.806;2024-01-11T03:38:52;25.97;;;8.53;;
16737;SDS011;17906;47.684;10.806;2024-01-11T03:41:19;21.90;;;7.73;;
16737;SDS011;17906;47.684;10.806;2024-01-11T03:43:46;25.03;;;7.43;;
16737;SDS011;17906;47.684;10.806;2024-01-11T03:46:12;22.67;;;7.57;;
16737;SDS011;17906;47.684;10.806;2024-01-11T03:48:39;27.90;;;8.10;;
16737;SDS011;17906;47.684;10.806;2024-01-11T03:51:07;25.73;;;8.03;;
16737;SDS011;17906;47.684;10.806;2024-01-11T03:53:34;27.63;;;7.80;;
16737;SDS011;17906;47.684;10.806;2024-01-11T03:56:02;26.73;;;8.20;;
16737;SDS011;17906;47.684;10.806;2024-01-11T03:58:29;24.80;;;9.63;;
16737;SDS011;17906;47.684;10.806;2024-01-11T04:00:55;30.07;;;8.13;;
16737;SDS011;17906;47.684;10.806;2024-01-11T04:03:22;25.77;;;8.07;;
16737;SDS011;17906;47.684;10.806;2024-01-11T04:05:49;38.43;;;8.43;;
16737;SDS011;17906;47.684;10.806;2024-01-11T04:08:17;24.23;;;8.67;;
16737;SDS011;17906;47.684;10.806;2024-01-11T04:10:44;28.73;;;8.50;;
16737;SDS011;17906;47.684;10.806;2024-01-11T04:13:11;21.80;;;7.07;;
16737;SDS011;17906;47.684;10.806;2024-01-11T04:15:37;30.13;;;8.60;;
16737;SDS011;17906;47.684;10.806;2024-01-11T04:18:04;26.30;;;7.17;;
16737;SDS011;17906;47.684;10.806;2024-01-11T04:20:31;34.17;;;8.60;;
16737;SDS011;17906;47.684;10.806;2024-01-11T04:22:57;35.57;;;7.77;;
16737;SDS011;17906;47.684;10.806;2024-01-11T04:25:25;35.13;;;8.70;;
16737;SDS011;17906;47.684;10.806;2024-01-11T04:27:52;26.07;;;8.00;;
16737;SDS011;17906;47.684;10.806;2024-01-11T04:30:19;26.40;;;7.80;;
16737;SDS011;17906;47.684;10.806;2024-01-11T04:32:45;28.80;;;7.80;;
16737;SDS011;17906;47.684;10.806;2024-01-11T04:35:12;25.60;;;7.43;;
16737;SDS011;17906;47.684;10.806;2024-01-11T04:37:38;34.13;;;7.77;;
16737;SDS011;17906;47.684;10.806;2024-01-11T04:40:06;29.57;;;8.33;;
16737;SDS011;17906;47.684;10.806;2024-01-11T04:42:35;27.87;;;7.77;;
16737;SDS011;17906;47.684;10.806;2024-01-11T04:45:02;24.83;;;7.17;;
16737;SDS011;17906;47.684;10.806;2024-01-11T04:47:30;30.47;;;7.80;;
16737;SDS011;17906;47.684;10.806;2024-01-11T04:49:57;37.37;;;8.60;;
16737;SDS011;17906;47.684;10.806;2024-01-11T04:52:24;31.33;;;7.77;;
16737;SDS011;17906;47.684;10.806;2024-01-11T04:54:50;24.10;;;7.77;;
16737;SDS011;17906;47.684;10.806;2024-01-11T04:57:17;25.57;;;6.97;;
16737;SDS011;17906;47.684;10.806;2024-01-11T04:59:45;30.47;;;7.87;;
16737;SDS011;17906;47.684;10.806;2024-01-11T05:02:11;31.93;;;8.87;;
16737;SDS011;17906;47.684;10.806;2024-01-11T05:04:40;33.20;;;8.87;;
16737;SDS011;17906;47.684;10.806;2024-01-11T05:07:06;30.30;;;8.67;;
16737;SDS011;17906;47.684;10.806;2024-01-11T05:09:33;28.27;;;7.97;;
16737;SDS011;17906;47.684;10.806;2024-01-11T05:11:59;24.70;;;8.50;;
16737;SDS011;17906;47.684;10.806;2024-01-11T05:14:26;28.03;;;8.30;;
16737;SDS011;17906;47.684;10.806;2024-01-11T05:16:54;26.83;;;7.63;;
16737;SDS011;17906;47.684;10.806;2024-01-11T05:19:21;44.70;;;8.50;;
16737;SDS011;17906;47.684;10.806;2024-01-11T05:21:47;36.80;;;8.13;;
16737;SDS011;17906;47.684;10.806;2024-01-11T05:24:14;27.50;;;7.10;;
16737;SDS011;17906;47.684;10.806;2024-01-11T05:26:40;37.20;;;8.77;;
16737;SDS011;17906;47.684;10.806;2024-01-11T05:29:07;22.30;;;6.97;;
16737;SDS011;17906;47.684;10.806;2024-01-11T05:31:34;24.33;;;7.80;;
16737;SDS011;17906;47.684;10.806;2024-01-11T05:34:02;27.00;;;8.00;;
16737;SDS011;17906;47.684;10.806;2024-01-11T05:36:29;20.70;;;6.40;;
16737;SDS011;17906;47.684;10.806;2024-01-11T05:38:55;26.40;;;7.37;;
16737;SDS011;17906;47.684;10.806;2024-01-11T05:41:22;39.40;;;7.93;;
16737;SDS011;17906;47.684;10.806;2024-01-11T05:43:48;27.27;;;7.67;;
16737;SDS011;17906;47.684;10.806;2024-01-11T05:46:15;30.07;;;8.23;;
16737;SDS011;17906;47.684;10.806;2024-01-11T05:48:42;24.03;;;7.97;;
16737;SDS011;17906;47.684;10.806;2024-01-11T05:51:10;29.33;;;8.30;;
16737;SDS011;17906;47.684;10.806;2024-01-11T05:53:37;22.27;;;7.77;;
16737;SDS011;17906;47.684;10.806;2024-01-11T05:56:06;25.53;;;7.43;;
16737;SDS011;17906;47.684;10.806;2024-01-11T05:58:34;24.13;;;7.63;;
16737;SDS011;17906;47.684;10.806;2024-01-11T06:01:01;19.87;;;6.63;;
16737;SDS011;17906;47.684;10.806;2024-01-11T06:03:28;23.77;;;6.67;;
16737;SDS011;17906;47.684;10.806;2024-01-11T06:05:59;20.87;;;6.60;;
16737;SDS011;17906;47.684;10.806;2024-01-11T06:08:27;20.93;;;5.80;;
16737;SDS011;17906;47.684;10.806;2024-01-11T06:10:54;17.47;;;6.10;;
16737;SDS011;17906;47.684;10.806;2024-01-11T06:13:21;18.50;;;6.47;;
16737;SDS011;17906;47.684;10.806;2024-01-11T06:15:48;16.00;;;5.80;;
16737;SDS011;17906;47.684;10.806;2024-01-11T06:18:16;18.03;;;5.90;;
16737;SDS011;17906;47.684;10.806;2024-01-11T06:20:42;20.67;;;6.20;;
16737;SDS011;17906;47.684;10.806;2024-01-11T06:23:09;22.37;;;6.43;;
16737;SDS011;17906;47.684;10.806;2024-01-11T06:25:37;19.23;;;6.17;;
16737;SDS011;17906;47.684;10.806;2024-01-11T06:28:03;26.50;;;7.10;;
16737;SDS011;17906;47.684;10.806;2024-01-11T06:30:31;24.57;;;7.50;;
16737;SDS011;17906;47.684;10.806;2024-01-11T06:32:58;22.43;;;7.13;;
16737;SDS011;17906;47.684;10.806;2024-01-11T06:35:24;26.40;;;6.80;;
16737;SDS011;17906;47.684;10.806;2024-01-11T06:37:51;22.37;;;7.00;;
16737;SDS011;17906;47.684;10.806;2024-01-11T06:40:18;19.60;;;6.30;;
16737;SDS011;17906;47.684;10.806;2024-01-11T06:42:46;19.87;;;6.47;;
16737;SDS011;17906;47.684;10.806;2024-01-11T06:45:12;30.40;;;7.70;;
16737;SDS011;17906;47.684;10.806;2024-01-11T06:47:39;23.70;;;7.37;;
16737;SDS011;17906;47.684;10.806;2024-01-11T06:50:06;25.77;;;7.13;;
16737;SDS011;17906;47.684;10.806;2024-01-11T06:52:34;23.00;;;7.00;;
16737;SDS011;17906;47.684;10.806;2024-01-11T06:55:01;29.70;;;8.30;;
16737;SDS011;17906;47.684;10.806;2024-01-11T06:57:27;31.30;;;7.60;;
16737;SDS011;17906;47.684;10.806;2024-01-11T06:59:55;26.07;;;7.37;;
16737;SDS011;17906;47.684;10.806;2024-01-11T07:02:22;26.03;;;8.47;;
16737;SDS011;17906;47.684;10.806;2024-01-11T07:04:49;31.70;;;8.50;;
16737;SDS011;17906;47.684;10.806;2024-01-11T07:07:15;31.87;;;9.87;;
16737;SDS011;17906;47.684;10.806;2024-01-11T07:09:42;20.60;;;6.93;;
16737;SDS011;17906;47.684;10.806;2024-01-11T07:12:09;21.30;;;6.97;;
16737;SDS011;17906;47.684;10.806;2024-01-11T07:14:36;20.07;;;6.27;;
16737;SDS011;17906;47.684;10.806;2024-01-11T07:17:04;20.43;;;6.33;;
16737;SDS011;17906;47.684;10.806;2024-01-11T07:19:30;20.60;;;5.87;;
16737;SDS011;17906;47.684;10.806;2024-01-11T07:21:57;19.77;;;6.43;;
16737;SDS011;17906;47.684;10.806;2024-01-11T07:24:24;23.70;;;6.77;;
16737;SDS011;17906;47.684;10.806;2024-01-11T07:26:51;20.87;;;6.93;;
16737;SDS011;17906;47.684;10.806;2024-01-11T07:29:18;20.97;;;6.73;;
16737;SDS011;17906;47.684;10.806;2024-01-11T07:31:45;24.50;;;7.70;;
16737;SDS011;17906;47.684;10.806;2024-01-11T07:34:13;19.23;;;6.10;;
16737;SDS011;17906;47.684;10.806;2024-01-11T07:36:39;23.00;;;7.00;;
16737;SDS011;17906;47.684;10.806;2024-01-11T07:39:06;25.10;;;6.83;;
16737;SDS011;17906;47.684;10.806;2024-01-11T07:41:32;29.03;;;7.67;;
16737;SDS011;17906;47.684;10.806;2024-01-11T07:43:59;33.30;;;7.10;;
16737;SDS011;17906;47.684;10.806;2024-01-11T07:46:26;35.10;;;7.53;;
16737;SDS011;17906;47.684;10.806;2024-01-11T07:48:52;90.20;;;8.63;;
16737;SDS011;17906;47.684;10.806;2024-01-11T07:51:20;42.43;;;6.87;;
16737;SDS011;17906;47.684;10.806;2024-01-11T07:53:47;40.80;;;7.17;;
16737;SDS011;17906;47.684;10.806;2024-01-11T07:56:14;30.13;;;7.70;;
16737;SDS011;17906;47.684;10.806;2024-01-11T07:58:40;32.77;;;7.33;;
16737;SDS011;17906;47.684;10.806;2024-01-11T08:01:08;40.60;;;8.00;;
16737;SDS011;17906;47.684;10.806;2024-01-11T08:03:35;34.53;;;7.77;;
16737;SDS011;17906;47.684;10.806;2024-01-11T08:06:02;52.37;;;7.87;;
16737;SDS011;17906;47.684;10.806;2024-01-11T08:08:30;43.90;;;8.63;;
16737;SDS011;17906;47.684;10.806;2024-01-11T08:10:57;32.13;;;7.77;;
16737;SDS011;17906;47.684;10.806;2024-01-11T08:13:23;34.13;;;8.63;;
16737;SDS011;17906;47.684;10.806;2024-01-11T08:15:50;35.07;;;7.90;;
16737;SDS011;17906;47.684;10.806;2024-01-11T08:18:18;28.57;;;6.83;;
16737;SDS011;17906;47.684;10.806;2024-01-11T08:20:45;28.23;;;6.27;;
16737;SDS011;17906;47.684;10.806;2024-01-11T08:23:12;30.77;;;7.20;;
16737;SDS011;17906;47.684;10.806;2024-01-11T08:25:40;38.07;;;7.77;;
16737;SDS011;17906;47.684;10.806;2024-01-11T08:28:06;31.17;;;7.20;;
16737;SDS011;17906;47.684;10.806;2024-01-11T08:30:33;32.23;;;8.80;;
16737;SDS011;17906;47.684;10.806;2024-01-11T08:32:59;40.67;;;9.07;;
16737;SDS011;17906;47.684;10.806;2024-01-11T08:35:26;42.83;;;8.87;;
16737;SDS011;17906;47.684;10.806;2024-01-11T08:37:53;37.83;;;7.90;;
16737;SDS011;17906;47.684;10.806;2024-01-11T08:40:20;28.87;;;9.10;;
16737;SDS011;17906;47.684;10.806;2024-01-11T08:42:48;36.33;;;8.77;;
16737;SDS011;17906;47.684;10.806;2024-01-11T08:45:14;39.43;;;9.23;;
16737;SDS011;17906;47.684;10.806;2024-01-11T08:47:43;36.50;;;9.00;;
16737;SDS011;17906;47.684;10.806;2024-01-11T08:50:12;32.53;;;9.33;;
16737;SDS011;17906;47.684;10.806;2024-01-11T08:52:39;32.83;;;8.27;;
16737;SDS011;17906;47.684;10.806;2024-01-11T08:55:05;40.10;;;9.33;;
16737;SDS011;17906;47.684;10.806;2024-01-11T08:57:32;18.87;;;6.80;;
16737;SDS011;17906;47.684;10.806;2024-01-11T09:00:02;27.47;;;7.67;;
16737;SDS011;17906;47.684;10.806;2024-01-11T09:02:29;27.90;;;8.97;;
16737;SDS011;17906;47.684;10.806;2024-01-11T09:04:55;30.60;;;7.47;;
16737;SDS011;17906;47.684;10.806;2024-01-11T09:07:22;37.57;;;9.30;;
16737;SDS011;17906;47.684;10.806;2024-01-11T09:09:48;25.17;;;8.20;;
16737;SDS011;17906;47.684;10.806;2024-01-11T09:12:15;28.80;;;8.47;;
16737;SDS011;17906;47.684;10.806;2024-01-11T09:14:42;36.77;;;9.57;;
16737;SDS011;17906;47.684;10.806;2024-01-11T09:17:10;36.80;;;9.90;;
16737;SDS011;17906;47.684;10.806;2024-01-11T09:19:36;34.40;;;9.20;;
16737;SDS011;17906;47.684;10.806;2024-01-11T09:22:05;33.80;;;8.07;;
16737;SDS011;17906;47.684;10.806;2024-01-11T09:24:33;32.17;;;9.17;;
16737;SDS011;17906;47.684;10.806;2024-01-11T09:27:00;32.70;;;8.90;;
16737;SDS011;17906;47.684;10.806;2024-01-11T09:29:26;30.00;;;8.87;;
16737;SDS011;17906;47.684;10.806;2024-01-11T09:31:53;26.53;;;9.07;;
16737;SDS011;17906;47.684;10.806;2024-01-11T09:34:21;25.67;;;8.37;;
16737;SDS011;17906;47.684;10.806;2024-01-11T09:36:48;29.87;;;8.30;;
16737;SDS011;17906;47.684;10.806;2024-01-11T09:39:14;23.40;;;8.10;;
16737;SDS011;17906;47.684;10.806;2024-01-11T09:41:42;30.60;;;9.00;;
16737;SDS011;17906;47.684;10.806;2024-01-11T09:44:16;22.47;;;7.27;;
16737;SDS011;17906;47.684;10.806;2024-01-11T09:46:43;27.07;;;7.80;;
16737;SDS011;17906;47.684;10.806;2024-01-11T09:49:10;27.40;;;8.30;;
16737;SDS011;17906;47.684;10.806;2024-01-11T09:51:38;24.27;;;7.37;;
16737;SDS011;17906;47.684;10.806;2024-01-11T09:54:08;27.10;;;7.90;;
16737;SDS011;17906;47.684;10.806;2024-01-11T09:56:36;26.00;;;9.23;;
16737;SDS011;17906;47.684;10.806;2024-01-11T09:59:04;24.30;;;8.30;;
16737;SDS011;17906;47.684;10.806;2024-01-11T10:01:34;23.30;;;7.73;;
16737;SDS011;17906;47.684;10.806;2024-01-11T10:04:01;22.93;;;7.87;;
16737;SDS011;17906;47.684;10.806;2024-01-11T10:06:30;23.07;;;7.60;;
16737;SDS011;17906;47.684;10.806;2024-01-11T10:08:59;22.93;;;7.70;;
16737;SDS011;17906;47.684;10.806;2024-01-11T10:11:26;22.03;;;6.90;;
16737;SDS011;17906;47.684;10.806;2024-01-11T10:13:55;20.03;;;6.50;;
16737;SDS011;17906;47.684;10.806;2024-01-11T10:16:22;22.07;;;7.73;;
16737;SDS011;17906;47.684;10.806;2024-01-11T10:18:49;20.97;;;7.47;;
16737;SDS011;17906;47.684;10.806;2024-01-11T10:21:16;19.87;;;6.50;;
16737;SDS011;17906;47.684;10.806;2024-01-11T10:23:42;19.17;;;6.40;;
16737;SDS011;17906;47.684;10.806;2024-01-11T10:26:10;20.70;;;7.20;;
16737;SDS011;17906;47.684;10.806;2024-01-11T10:28:37;22.10;;;6.80;;
16737;SDS011;17906;47.684;10.806;2024-01-11T10:31:03;19.83;;;6.70;;
16737;SDS011;17906;47.684;10.806;2024-01-11T10:33:32;23.77;;;7.63;;
16737;SDS011;17906;47.684;10.806;2024-01-11T10:36:01;24.40;;;7.63;;
16737;SDS011;17906;47.684;10.806;2024-01-11T10:38:28;22.60;;;7.43;;
16737;SDS011;17906;47.684;10.806;2024-01-11T10:40:56;24.57;;;8.07;;
16737;SDS011;17906;47.684;10.806;2024-01-11T10:43:27;23.93;;;6.53;;
16737;SDS011;17906;47.684;10.806;2024-01-11T10:45:58;24.43;;;7.33;;
16737;SDS011;17906;47.684;10.806;2024-01-11T10:48:28;23.47;;;7.40;;
16737;SDS011;17906;47.684;10.806;2024-01-11T10:50:58;22.90;;;7.50;;
16737;SDS011;17906;47.684;10.806;2024-01-11T10:53:28;17.10;;;6.00;;
16737;SDS011;17906;47.684;10.806;2024-01-11T10:56:07;21.97;;;7.57;;
16737;SDS011;17906;47.684;10.806;2024-01-11T10:58:39;24.30;;;7.70;;
16737;SDS011;17906;47.684;10.806;2024-01-11T11:01:07;21.10;;;6.60;;
16737;SDS011;17906;47.684;10.806;2024-01-11T11:03:35;22.47;;;7.80;;
16737;SDS011;17906;47.684;10.806;2024-01-11T11:06:04;19.77;;;6.87;;
16737;SDS011;17906;47.684;10.806;2024-01-11T11:08:32;26.40;;;7.17;;
16737;SDS011;17906;47.684;10.806;2024-01-11T11:11:01;19.47;;;6.97;;
16737;SDS011;17906;47.684;10.806;2024-01-11T11:13:30;16.83;;;5.67;;
16737;SDS011;17906;47.684;10.806;2024-01-11T11:15:59;25.13;;;7.17;;
16737;SDS011;17906;47.684;10.806;2024-01-11T11:18:25;23.97;;;8.53;;
16737;SDS011;17906;47.684;10.806;2024-01-11T11:20:52;21.57;;;5.97;;
16737;SDS011;17906;47.684;10.806;2024-01-11T11:23:19;19.00;;;7.17;;
16737;SDS011;17906;47.684;10.806;2024-01-11T11:25:46;19.93;;;7.93;;
16737;SDS011;17906;47.684;10.806;2024-01-11T11:28:15;19.23;;;6.57;;
16737;SDS011;17906;47.684;10.806;2024-01-11T11:30:43;19.40;;;6.43;;
16737;SDS011;17906;47.684;10.806;2024-01-11T11:33:16;19.53;;;5.83;;
16737;SDS011;17906;47.684;10.806;2024-01-11T11:35:43;16.90;;;6.77;;
16737;SDS011;17906;47.684;10.806;2024-01-11T11:38:16;19.97;;;6.57;;
16737;SDS011;17906;47.684;10.806;2024-01-11T11:40:44;18.00;;;6.33;;
16737;SDS011;17906;47.684;10.806;2024-01-11T11:43:13;18.73;;;5.77;;
16737;SDS011;17906;47.684;10.806;2024-01-11T11:45:43;18.53;;;5.97;;
16737;SDS011;17906;47.684;10.806;2024-01-11T11:51:16;17.60;;;6.77;;
16737;SDS011;17906;47.684;10.806;2024-01-11T11:53:45;19.20;;;6.60;;
16737;SDS011;17906;47.684;10.806;2024-01-11T11:56:12;19.87;;;6.47;;
16737;SDS011;17906;47.684;10.806;2024-01-11T11:58:42;17.57;;;6.93;;
16737;SDS011;17906;47.684;10.806;2024-01-11T12:01:09;22.40;;;6.73;;
16737;SDS011;17906;47.684;10.806;2024-01-11T12:03:36;20.63;;;6.53;;
16737;SDS011;17906;47.684;10.806;2024-01-11T12:06:06;18.97;;;6.60;;
16737;SDS011;17906;47.684;10.806;2024-01-11T12:08:34;23.87;;;8.50;;
16737;SDS011;17906;47.684;10.806;2024-01-11T12:11:01;20.50;;;7.27;;
16737;SDS011;17906;47.684;10.806;2024-01-11T12:13:28;16.30;;;6.93;;
16737;SDS011;17906;47.684;10.806;2024-01-11T12:15:56;17.47;;;6.67;;
16737;SDS011;17906;47.684;10.806;2024-01-11T12:18:23;17.60;;;6.60;;
16737;SDS011;17906;47.684;10.806;2024-01-11T12:20:50;18.00;;;7.00;;
16737;SDS011;17906;47.684;10.806;2024-01-11T12:23:19;18.50;;;6.80;;
16737;SDS011;17906;47.684;10.806;2024-01-11T12:25:46;16.07;;;5.77;;
16737;SDS011;17906;47.684;10.806;2024-01-11T12:28:13;18.03;;;6.17;;
16737;SDS011;17906;47.684;10.806;2024-01-11T12:30:40;17.47;;;6.60;;
16737;SDS011;17906;47.684;10.806;2024-01-11T12:33:07;17.00;;;6.87;;
16737;SDS011;17906;47.684;10.806;2024-01-11T12:35:34;25.93;;;8.03;;
16737;SDS011;17906;47.684;10.806;2024-01-11T12:38:01;26.53;;;9.00;;
16737;SDS011;17906;47.684;10.806;2024-01-11T12:40:33;19.20;;;7.13;;
16737;SDS011;17906;47.684;10.806;2024-01-11T12:43:02;23.57;;;8.07;;
16737;SDS011;17906;47.684;10.806;2024-01-11T12:45:29;27.83;;;8.90;;
16737;SDS011;17906;47.684;10.806;2024-01-11T12:47:57;19.13;;;6.63;;
16737;SDS011;17906;47.684;10.806;2024-01-11T12:50:24;20.70;;;6.70;;
16737;SDS011;17906;47.684;10.806;2024-01-11T12:53:04;18.47;;;6.47;;
16737;SDS011;17906;47.684;10.806;2024-01-11T12:55:33;22.93;;;7.90;;
16737;SDS011;17906;47.684;10.806;2024-01-11T12:58:04;19.10;;;6.63;;
16737;SDS011;17906;47.684;10.806;2024-01-11T13:00:31;19.70;;;7.13;;
16737;SDS011;17906;47.684;10.806;2024-01-11T13:02:58;23.10;;;7.70;;
16737;SDS011;17906;47.684;10.806;2024-01-11T13:05:25;26.80;;;8.93;;
16737;SDS011;17906;47.684;10.806;2024-01-11T13:07:51;21.90;;;8.20;;
16737;SDS011;17906;47.684;10.806;2024-01-11T13:10:18;28.40;;;8.63;;
16737;SDS011;17906;47.684;10.806;2024-01-11T13:12:46;26.30;;;8.53;;
16737;SDS011;17906;47.684;10.806;2024-01-11T13:15:12;20.13;;;8.27;;
16737;SDS011;17906;47.684;10.806;2024-01-11T13:17:39;25.73;;;8.37;;
16737;SDS011;17906;47.684;10.806;2024-01-11T13:20:06;26.43;;;8.43;;
16737;SDS011;17906;47.684;10.806;2024-01-11T13:22:33;28.07;;;9.33;;
16737;SDS011;17906;47.684;10.806;2024-01-11T13:25:00;26.47;;;9.23;;
16737;SDS011;17906;47.684;10.806;2024-01-11T13:27:26;27.50;;;8.37;;
16737;SDS011;17906;47.684;10.806;2024-01-11T13:29:54;30.30;;;9.30;;
16737;SDS011;17906;47.684;10.806;2024-01-11T13:32:21;23.80;;;9.37;;
16737;SDS011;17906;47.684;10.806;2024-01-11T13:34:47;27.03;;;8.67;;
16737;SDS011;17906;47.684;10.806;2024-01-11T13:37:18;23.87;;;8.60;;
16737;SDS011;17906;47.684;10.806;2024-01-11T13:39:45;23.97;;;8.07;;
16737;SDS011;17906;47.684;10.806;2024-01-11T13:42:11;22.63;;;7.90;;
16737;SDS011;17906;47.684;10.806;2024-01-11T13:44:38;23.70;;;8.93;;
16737;SDS011;17906;47.684;10.806;2024-01-11T13:47:06;25.93;;;8.30;;
16737;SDS011;17906;47.684;10.806;2024-01-11T13:49:33;24.87;;;8.57;;
16737;SDS011;17906;47.684;10.806;2024-01-11T13:51:59;23.57;;;8.97;;
16737;SDS011;17906;47.684;10.806;2024-01-11T13:54:26;31.63;;;11.20;;
16737;SDS011;17906;47.684;10.806;2024-01-11T13:56:53;30.10;;;10.57;;
16737;SDS011;17906;47.684;10.806;2024-01-11T13:59:19;23.50;;;9.07;;
16737;SDS011;17906;47.684;10.806;2024-01-11T14:01:46;23.50;;;8.27;;
16737;SDS011;17906;47.684;10.806;2024-01-11T14:04:14;25.17;;;8.43;;
16737;SDS011;17906;47.684;10.806;2024-01-11T14:06:40;24.97;;;8.20;;
16737;SDS011;17906;47.684;10.806;2024-01-11T14:09:07;21.57;;;8.23;;
16737;SDS011;17906;47.684;10.806;2024-01-11T14:11:34;21.83;;;8.27;;
16737;SDS011;17906;47.684;10.806;2024-01-11T14:14:01;23.47;;;7.47;;
16737;SDS011;17906;47.684;10.806;2024-01-11T14:16:27;24.00;;;8.50;;
16737;SDS011;17906;47.684;10.806;2024-01-11T14:18:54;25.40;;;9.87;;
16737;SDS011;17906;47.684;10.806;2024-01-11T14:21:22;25.77;;;8.50;;
16737;SDS011;17906;47.684;10.806;2024-01-11T14:23:49;25.17;;;9.20;;